sensor_id;sensor_type;location;lat;lon;timestamp;pressure;altitude;pressure_sealevel;temperature;humidity
57990;BME280;58373;51.824;5.564;2022-07-06T00:01:21;102487.03;;;13.28;71.10
57990;BME280;58373;51.824;5.564;2022-07-06T00:03:47;102472.22;;;13.28;71.26
57990;BME280;58373;51.824;5.564;2022-07-06T00:06:12;102488.38;;;13.21;71.76
57990;BME280;58373;51.824;5.564;2022-07-06T00:08:38;102491.06;;;13.19;71.56
57990;BME280;58373;51.824;5.564;2022-07-06T00:11:04;102488.25;;;13.22;71.60
57990;BME280;58373;51.824;5.564;2022-07-06T00:13:30;102487.47;;;13.08;71.79
57990;BME280;58373;51.824;5.564;2022-07-06T00:15:55;102493.56;;;13.21;71.57
57990;BME280;58373;51.824;5.564;2022-07-06T00:18:21;102484.91;;;13.20;71.40
57990;BME280;58373;51.824;5.564;2022-07-06T00:20:46;102477.28;;;13.17;71.74
57990;BME280;58373;51.824;5.564;2022-07-06T00:23:12;102479.06;;;12.90;73.42
57990;BME280;58373;51.824;5.564;2022-07-06T00:25:37;102483.50;;;13.02;72.60
57990;BME280;58373;51.824;5.564;2022-07-06T00:28:03;102476.59;;;13.01;72.98
57990;BME280;58373;51.824;5.564;2022-07-06T00:30:28;102484.97;;;13.06;72.09
57990;BME280;58373;51.824;5.564;2022-07-06T00:32:54;102485.91;;;13.05;72.16
57990;BME280;58373;51.824;5.564;2022-07-06T00:35:20;102486.44;;;13.10;71.92
57990;BME280;58373;51.824;5.564;2022-07-06T00:37:45;102486.44;;;13.10;72.07
57990;BME280;58373;51.824;5.564;2022-07-06T00:40:10;102483.06;;;12.95;72.15
57990;BME280;58373;51.824;5.564;2022-07-06T00:42:40;102489.56;;;13.02;72.82
57990;BME280;58373;51.824;5.564;2022-07-06T00:45:06;102481.63;;;13.04;72.21
57990;BME280;58373;51.824;5.564;2022-07-06T00:47:32;102483.69;;;12.99;72.31
57990;BME280;58373;51.824;5.564;2022-07-06T00:49:57;102488.09;;;13.11;72.10
57990;BME280;58373;51.824;5.564;2022-07-06T00:52:46;102478.25;;;12.89;72.05
57990;BME280;58373;51.824;5.564;2022-07-06T00:55:13;102483.56;;;12.88;73.03
57990;BME280;58373;51.824;5.564;2022-07-06T00:57:39;102482.22;;;12.95;73.17
57990;BME280;58373;51.824;5.564;2022-07-06T01:00:07;102473.44;;;12.83;74.16
57990;BME280;58373;51.824;5.564;2022-07-06T01:02:35;102477.22;;;12.92;73.42
57990;BME280;58373;51.824;5.564;2022-07-06T01:05:04;102469.81;;;12.86;73.33
57990;BME280;58373;51.824;5.564;2022-07-06T01:07:30;102477.22;;;12.92;72.82
57990;BME280;58373;51.824;5.564;2022-07-06T01:09:56;102466.59;;;12.95;72.63
57990;BME280;58373;51.824;5.564;2022-07-06T01:12:21;102476.31;;;12.79;73.57
57990;BME280;58373;51.824;5.564;2022-07-06T01:14:47;102483.44;;;12.89;73.57
57990;BME280;58373;51.824;5.564;2022-07-06T01:17:13;102489.28;;;12.80;74.70
57990;BME280;58373;51.824;5.564;2022-07-06T01:19:39;102484.78;;;12.82;73.86
57990;BME280;58373;51.824;5.564;2022-07-06T01:22:04;102474.66;;;12.77;74.90
57990;BME280;58373;51.824;5.564;2022-07-06T01:24:30;102480.81;;;12.76;74.98
57990;BME280;58373;51.824;5.564;2022-07-06T01:26:55;102475.22;;;12.83;74.03
57990;BME280;58373;51.824;5.564;2022-07-06T01:29:21;102473.84;;;12.77;74.65
57990;BME280;58373;51.824;5.564;2022-07-06T01:31:47;102468.78;;;12.61;74.64
57990;BME280;58373;51.824;5.564;2022-07-06T01:34:14;102468.00;;;12.73;74.22
57990;BME280;58373;51.824;5.564;2022-07-06T01:36:40;102468.41;;;12.67;74.43
57990;BME280;58373;51.824;5.564;2022-07-06T01:39:07;102488.38;;;12.67;74.06
57990;BME280;58373;51.824;5.564;2022-07-06T01:41:33;102487.75;;;12.63;75.10
57990;BME280;58373;51.824;5.564;2022-07-06T01:43:58;102471.91;;;12.66;74.90
57990;BME280;58373;51.824;5.564;2022-07-06T01:46:23;102473.22;;;12.73;74.54
57990;BME280;58373;51.824;5.564;2022-07-06T01:48:49;102480.28;;;12.71;74.14
57990;BME280;58373;51.824;5.564;2022-07-06T01:51:14;102485.03;;;12.65;74.85
57990;BME280;58373;51.824;5.564;2022-07-06T01:53:40;102473.78;;;12.64;74.76
57990;BME280;58373;51.824;5.564;2022-07-06T01:56:06;102474.34;;;12.69;74.54
57990;BME280;58373;51.824;5.564;2022-07-06T01:58:31;102470.66;;;12.59;74.51
57990;BME280;58373;51.824;5.564;2022-07-06T02:00:56;102469.41;;;12.65;74.56
57990;BME280;58373;51.824;5.564;2022-07-06T02:03:22;102468.72;;;12.48;74.88
57990;BME280;58373;51.824;5.564;2022-07-06T02:05:47;102454.47;;;12.54;74.38
57990;BME280;58373;51.824;5.564;2022-07-06T02:08:13;102470.06;;;12.68;73.66
57990;BME280;58373;51.824;5.564;2022-07-06T02:10:38;102475.41;;;12.53;74.59
57990;BME280;58373;51.824;5.564;2022-07-06T02:13:03;102467.50;;;12.54;75.06
57990;BME280;58373;51.824;5.564;2022-07-06T02:15:29;102469.81;;;12.59;74.51
57990;BME280;58373;51.824;5.564;2022-07-06T02:17:54;102453.75;;;12.52;74.53
57990;BME280;58373;51.824;5.564;2022-07-06T02:20:20;102475.19;;;12.56;74.38
57990;BME280;58373;51.824;5.564;2022-07-06T02:22:45;102474.72;;;12.63;74.43
57990;BME280;58373;51.824;5.564;2022-07-06T02:25:11;102480.72;;;12.51;75.27
57990;BME280;58373;51.824;5.564;2022-07-06T02:27:36;102481.06;;;12.59;74.46
57990;BME280;58373;51.824;5.564;2022-07-06T02:30:02;102468.81;;;12.47;74.90
57990;BME280;58373;51.824;5.564;2022-07-06T02:32:28;102461.03;;;12.47;74.55
57990;BME280;58373;51.824;5.564;2022-07-06T02:34:53;102484.78;;;12.55;74.83
57990;BME280;58373;51.824;5.564;2022-07-06T02:37:18;102477.81;;;12.56;75.14
57990;BME280;58373;51.824;5.564;2022-07-06T02:39:44;102486.09;;;12.62;74.43
57990;BME280;58373;51.824;5.564;2022-07-06T02:42:09;102476.06;;;12.56;75.64
57990;BME280;58373;51.824;5.564;2022-07-06T02:44:34;102464.28;;;12.36;75.69
57990;BME280;58373;51.824;5.564;2022-07-06T02:47:00;102459.53;;;12.43;76.01
57990;BME280;58373;51.824;5.564;2022-07-06T02:49:26;102474.72;;;12.63;75.63
57990;BME280;58373;51.824;5.564;2022-07-06T02:51:51;102467.94;;;12.61;76.24
57990;BME280;58373;51.824;5.564;2022-07-06T02:54:16;102469.31;;;12.66;75.79
57990;BME280;58373;51.824;5.564;2022-07-06T02:56:42;102433.50;;;12.43;75.67
57990;BME280;58373;51.824;5.564;2022-07-06T02:59:07;102473.78;;;12.64;76.52
57990;BME280;58373;51.824;5.564;2022-07-06T03:01:32;102464.66;;;12.71;75.91
57990;BME280;58373;51.824;5.564;2022-07-06T03:03:58;102457.53;;;12.61;76.08
57990;BME280;58373;51.824;5.564;2022-07-06T03:06:23;102474.66;;;12.77;76.29
57990;BME280;58373;51.824;5.564;2022-07-06T03:08:48;102472.81;;;12.80;76.07
57990;BME280;58373;51.824;5.564;2022-07-06T03:11:14;102468.00;;;12.73;76.85
57990;BME280;58373;51.824;5.564;2022-07-06T03:13:39;102477.28;;;12.77;76.32
57990;BME280;58373;51.824;5.564;2022-07-06T03:16:04;102478.03;;;12.80;75.51
57990;BME280;58373;51.824;5.564;2022-07-06T03:18:30;102475.06;;;12.71;76.41
57990;BME280;58373;51.824;5.564;2022-07-06T03:20:55;102485.09;;;12.77;75.60
57990;BME280;58373;51.824;5.564;2022-07-06T03:23:20;102483.22;;;12.80;75.81
57990;BME280;58373;51.824;5.564;2022-07-06T03:25:46;102489.72;;;12.87;75.24
57990;BME280;58373;51.824;5.564;2022-07-06T03:28:11;102476.31;;;12.79;75.99
57990;BME280;58373;51.824;5.564;2022-07-06T03:30:37;102488.66;;;12.89;75.91
57990;BME280;58373;51.824;5.564;2022-07-06T03:33:02;102484.69;;;12.84;76.14
57990;BME280;58373;51.824;5.564;2022-07-06T03:35:28;102480.16;;;13.00;75.52
57990;BME280;58373;51.824;5.564;2022-07-06T03:37:53;102482.44;;;12.92;76.02
57990;BME280;58373;51.824;5.564;2022-07-06T03:40:18;102492.63;;;12.95;76.79
57990;BME280;58373;51.824;5.564;2022-07-06T03:42:44;102497.66;;;12.98;76.75
57990;BME280;58373;51.824;5.564;2022-07-06T03:45:09;102498.19;;;13.03;76.63
57990;BME280;58373;51.824;5.564;2022-07-06T03:47:35;102501.38;;;12.94;77.28
57990;BME280;58373;51.824;5.564;2022-07-06T03:50:00;102495.16;;;12.96;77.01
57990;BME280;58373;51.824;5.564;2022-07-06T03:52:26;102497.44;;;13.01;76.94
57990;BME280;58373;51.824;5.564;2022-07-06T03:54:51;102486.88;;;12.90;77.33
57990;BME280;58373;51.824;5.564;2022-07-06T03:57:16;102497.25;;;13.04;77.31
57990;BME280;58373;51.824;5.564;2022-07-06T03:59:42;102496.31;;;13.05;77.37
57990;BME280;58373;51.824;5.564;2022-07-06T04:02:07;102482.22;;;12.95;77.59
57990;BME280;58373;51.824;5.564;2022-07-06T04:04:35;102489.72;;;12.87;78.31
57990;BME280;58373;51.824;5.564;2022-07-06T04:07:01;102481.16;;;12.85;76.75
57990;BME280;58373;51.824;5.564;2022-07-06T04:09:26;102490.56;;;13.00;76.16
57990;BME280;58373;51.824;5.564;2022-07-06T04:11:51;102490.56;;;13.00;76.16
57990;BME280;58373;51.824;5.564;2022-07-06T04:14:17;102491.41;;;13.00;76.97
57990;BME280;58373;51.824;5.564;2022-07-06T04:16:43;102486.19;;;13.00;76.85
57990;BME280;58373;51.824;5.564;2022-07-06T04:19:08;102480.59;;;13.07;77.01
57990;BME280;58373;51.824;5.564;2022-07-06T04:21:34;102484.97;;;13.06;77.06
57990;BME280;58373;51.824;5.564;2022-07-06T04:23:59;102489.97;;;13.09;76.92
57990;BME280;58373;51.824;5.564;2022-07-06T04:26:24;102480.81;;;13.16;76.65
57990;BME280;58373;51.824;5.564;2022-07-06T04:28:50;102484.38;;;13.15;76.60
57990;BME280;58373;51.824;5.564;2022-07-06T04:31:15;102490.59;;;13.13;76.71
57990;BME280;58373;51.824;5.564;2022-07-06T04:33:41;102491.81;;;13.21;76.10
57990;BME280;58373;51.824;5.564;2022-07-06T04:36:08;102475.22;;;13.22;76.53
57990;BME280;58373;51.824;5.564;2022-07-06T04:38:34;102482.94;;;13.24;76.89
57990;BME280;58373;51.824;5.564;2022-07-06T04:40:59;102478.78;;;13.21;77.47
57990;BME280;58373;51.824;5.564;2022-07-06T04:43:24;102480.63;;;13.19;78.03
57990;BME280;58373;51.824;5.564;2022-07-06T04:45:50;102479.84;;;13.32;77.28
57990;BME280;58373;51.824;5.564;2022-07-06T04:48:15;102484.00;;;13.21;78.27
57990;BME280;58373;51.824;5.564;2022-07-06T04:50:40;102479.34;;;13.12;77.99
57990;BME280;58373;51.824;5.564;2022-07-06T04:53:06;102470.41;;;13.16;77.94
57990;BME280;58373;51.824;5.564;2022-07-06T04:55:31;102479.50;;;13.23;77.33
57990;BME280;58373;51.824;5.564;2022-07-06T04:57:57;102476.72;;;13.26;77.08
57990;BME280;58373;51.824;5.564;2022-07-06T05:00:22;102469.00;;;13.25;77.41
57990;BME280;58373;51.824;5.564;2022-07-06T05:02:47;102481.50;;;13.33;76.79
57990;BME280;58373;51.824;5.564;2022-07-06T05:05:13;102486.06;;;13.29;78.53
57990;BME280;58373;51.824;5.564;2022-07-06T05:07:38;102475.66;;;13.29;77.83
57990;BME280;58373;51.824;5.564;2022-07-06T05:10:10;102495.38;;;13.33;78.81
57990;BME280;58373;51.824;5.564;2022-07-06T05:12:37;102490.47;;;13.41;77.48
57990;BME280;58373;51.824;5.564;2022-07-06T05:15:03;102496.72;;;13.51;78.60
57990;BME280;58373;51.824;5.564;2022-07-06T05:17:28;102493.09;;;13.54;78.78
57990;BME280;58373;51.824;5.564;2022-07-06T05:19:54;102476.94;;;13.49;77.48
57990;BME280;58373;51.824;5.564;2022-07-06T05:22:19;102494.88;;;13.66;77.17
57990;BME280;58373;51.824;5.564;2022-07-06T05:24:45;102495.38;;;13.59;77.40
57990;BME280;58373;51.824;5.564;2022-07-06T05:27:10;102499.69;;;13.72;76.68
57990;BME280;58373;51.824;5.564;2022-07-06T05:29:36;102505.19;;;13.80;77.13
57990;BME280;58373;51.824;5.564;2022-07-06T05:32:01;102499.53;;;13.87;76.19
57990;BME280;58373;51.824;5.564;2022-07-06T05:34:27;102490.06;;;13.86;75.67
57990;BME280;58373;51.824;5.564;2022-07-06T05:36:52;102499.22;;;14.04;75.29
57990;BME280;58373;51.824;5.564;2022-07-06T05:39:17;102487.53;;;13.97;74.72
57990;BME280;58373;51.824;5.564;2022-07-06T05:41:46;102495.03;;;14.14;74.72
57990;BME280;58373;51.824;5.564;2022-07-06T05:44:12;102506.63;;;14.10;73.99
57990;BME280;58373;51.824;5.564;2022-07-06T05:46:38;102504.53;;;14.15;74.15
57990;BME280;58373;51.824;5.564;2022-07-06T05:49:03;102493.13;;;14.16;74.79
57990;BME280;58373;51.824;5.564;2022-07-06T05:51:47;102502.75;;;14.28;74.47
57990;BME280;58373;51.824;5.564;2022-07-06T05:54:12;102507.97;;;14.28;73.04
57990;BME280;58373;51.824;5.564;2022-07-06T05:56:38;102500.84;;;14.30;73.38
57990;BME280;58373;51.824;5.564;2022-07-06T05:59:03;102494.41;;;14.23;74.05
57990;BME280;58373;51.824;5.564;2022-07-06T06:01:29;102509.31;;;14.34;73.53
57990;BME280;58373;51.824;5.564;2022-07-06T06:03:54;102492.28;;;14.28;73.09
57990;BME280;58373;51.824;5.564;2022-07-06T06:06:20;102512.94;;;14.31;72.64
57990;BME280;58373;51.824;5.564;2022-07-06T06:08:45;102510.44;;;14.30;73.30
57990;BME280;58373;51.824;5.564;2022-07-06T06:11:10;102516.28;;;14.33;72.97
57990;BME280;58373;51.824;5.564;2022-07-06T06:13:36;102504.16;;;14.45;73.10
57990;BME280;58373;51.824;5.564;2022-07-06T06:16:01;102498.94;;;14.45;72.98
57990;BME280;58373;51.824;5.564;2022-07-06T06:18:26;102508.69;;;14.67;73.16
57990;BME280;58373;51.824;5.564;2022-07-06T06:20:53;102510.38;;;14.68;72.38
57990;BME280;58373;51.824;5.564;2022-07-06T06:23:18;102498.69;;;14.61;72.55
57990;BME280;58373;51.824;5.564;2022-07-06T06:25:44;102520.59;;;14.71;71.48
57990;BME280;58373;51.824;5.564;2022-07-06T06:28:10;102521.09;;;14.76;71.23
57990;BME280;58373;51.824;5.564;2022-07-06T06:30:37;102518.69;;;14.73;71.81
57990;BME280;58373;51.824;5.564;2022-07-06T06:33:13;102512.81;;;14.82;71.60
57990;BME280;58373;51.824;5.564;2022-07-06T06:35:44;102520.84;;;14.79;71.68
57990;BME280;58373;51.824;5.564;2022-07-06T06:38:10;102503.56;;;14.90;71.17
57990;BME280;58373;51.824;5.564;2022-07-06T06:40:35;102510.44;;;14.91;70.33
57990;BME280;58373;51.824;5.564;2022-07-06T06:43:00;102517.13;;;14.95;71.59
57990;BME280;58373;51.824;5.564;2022-07-06T06:45:26;102518.78;;;14.96;70.65
57990;BME280;58373;51.824;5.564;2022-07-06T06:47:51;102518.34;;;15.02;71.13
57990;BME280;58373;51.824;5.564;2022-07-06T06:50:17;102516.47;;;15.04;70.22
57990;BME280;58373;51.824;5.564;2022-07-06T06:52:42;102514.56;;;15.06;71.00
57990;BME280;58373;51.824;5.564;2022-07-06T06:55:08;102513.16;;;15.13;69.50
57990;BME280;58373;51.824;5.564;2022-07-06T06:57:33;102527.94;;;15.25;70.25
57990;BME280;58373;51.824;5.564;2022-07-06T06:59:59;102524.38;;;15.26;68.39
57990;BME280;58373;51.824;5.564;2022-07-06T07:02:24;102513.44;;;15.21;67.73
57990;BME280;58373;51.824;5.564;2022-07-06T07:04:50;102525.31;;;15.25;66.72
57990;BME280;58373;51.824;5.564;2022-07-06T07:07:15;102526.09;;;15.38;67.78
57990;BME280;58373;51.824;5.564;2022-07-06T07:09:40;102527.28;;;15.46;68.78
57990;BME280;58373;51.824;5.564;2022-07-06T07:12:06;102521.69;;;15.39;67.39
57990;BME280;58373;51.824;5.564;2022-07-06T07:14:31;102526.47;;;15.56;68.29
57990;BME280;58373;51.824;5.564;2022-07-06T07:16:57;102519.50;;;15.68;67.02
57990;BME280;58373;51.824;5.564;2022-07-06T07:19:23;102524.97;;;15.76;67.19
57990;BME280;58373;51.824;5.564;2022-07-06T07:21:48;102526.41;;;15.80;67.21
57990;BME280;58373;51.824;5.564;2022-07-06T07:24:13;102520.22;;;15.70;68.25
57990;BME280;58373;51.824;5.564;2022-07-06T07:26:39;102520.47;;;15.78;67.11
57990;BME280;58373;51.824;5.564;2022-07-06T07:29:04;102535.94;;;15.92;67.54
57990;BME280;58373;51.824;5.564;2022-07-06T07:31:29;102534.97;;;15.82;66.23
57990;BME280;58373;51.824;5.564;2022-07-06T07:33:55;102535.94;;;15.92;66.12
57990;BME280;58373;51.824;5.564;2022-07-06T07:36:23;102540.81;;;15.97;65.54
57990;BME280;58373;51.824;5.564;2022-07-06T07:38:49;102546.88;;;15.98;65.81
57990;BME280;58373;51.824;5.564;2022-07-06T07:41:14;102533.59;;;16.01;66.12
57990;BME280;58373;51.824;5.564;2022-07-06T07:43:42;102526.91;;;15.97;65.87
57990;BME280;58373;51.824;5.564;2022-07-06T07:46:07;102529.53;;;16.08;66.41
57990;BME280;58373;51.824;5.564;2022-07-06T07:48:32;102522.38;;;16.10;64.94
57990;BME280;58373;51.824;5.564;2022-07-06T07:50:58;102535.81;;;16.28;67.00
57990;BME280;58373;51.824;5.564;2022-07-06T07:53:23;102532.81;;;16.43;65.30
57990;BME280;58373;51.824;5.564;2022-07-06T07:55:48;102538.75;;;16.45;62.82
57990;BME280;58373;51.824;5.564;2022-07-06T07:58:14;102539.03;;;16.42;62.54
57990;BME280;58373;51.824;5.564;2022-07-06T08:00:39;102540.94;;;16.40;61.25
57990;BME280;58373;51.824;5.564;2022-07-06T08:03:04;102530.66;;;16.49;61.46
57990;BME280;58373;51.824;5.564;2022-07-06T08:05:30;102525.63;;;16.57;61.59
57990;BME280;58373;51.824;5.564;2022-07-06T08:07:55;102530.16;;;16.66;60.23
57990;BME280;58373;51.824;5.564;2022-07-06T08:10:21;102529.69;;;16.72;58.83
57990;BME280;58373;51.824;5.564;2022-07-06T08:12:46;102528.63;;;16.75;59.14
57990;BME280;58373;51.824;5.564;2022-07-06T08:15:12;102521.53;;;16.97;60.25
57990;BME280;58373;51.824;5.564;2022-07-06T08:17:37;102534.78;;;17.17;60.21
57990;BME280;58373;51.824;5.564;2022-07-06T08:20:05;102530.69;;;17.24;58.03
57990;BME280;58373;51.824;5.564;2022-07-06T08:22:30;102534.50;;;17.20;56.87
57990;BME280;58373;51.824;5.564;2022-07-06T08:24:56;102530.13;;;17.20;57.05
57990;BME280;58373;51.824;5.564;2022-07-06T08:27:21;102522.34;;;17.19;55.78
57990;BME280;58373;51.824;5.564;2022-07-06T08:29:47;102520.81;;;17.37;54.26
57990;BME280;58373;51.824;5.564;2022-07-06T08:32:12;102528.09;;;17.55;56.03
57990;BME280;58373;51.824;5.564;2022-07-06T08:34:37;102513.22;;;17.55;55.86
57990;BME280;58373;51.824;5.564;2022-07-06T08:37:03;102520.34;;;17.43;54.06
57990;BME280;58373;51.824;5.564;2022-07-06T08:39:28;102509.31;;;17.49;54.51
57990;BME280;58373;51.824;5.564;2022-07-06T08:41:55;102515.50;;;17.90;56.81
57990;BME280;58373;51.824;5.564;2022-07-06T08:44:23;102515.34;;;17.92;54.74
57990;BME280;58373;51.824;5.564;2022-07-06T08:46:49;102511.75;;;17.93;54.77
57990;BME280;58373;51.824;5.564;2022-07-06T08:49:16;102516.28;;;17.81;52.92
57990;BME280;58373;51.824;5.564;2022-07-06T08:51:42;102509.81;;;17.85;53.55
57990;BME280;58373;51.824;5.564;2022-07-06T08:54:09;102520.13;;;18.08;54.77
57990;BME280;58373;51.824;5.564;2022-07-06T08:56:35;102521.41;;;18.23;54.48
57990;BME280;58373;51.824;5.564;2022-07-06T08:59:01;102504.09;;;18.11;54.15
57990;BME280;58373;51.824;5.564;2022-07-06T09:01:26;102510.75;;;18.15;51.53
57990;BME280;58373;51.824;5.564;2022-07-06T09:03:54;102509.22;;;18.22;50.69
57990;BME280;58373;51.824;5.564;2022-07-06T09:06:23;102515.75;;;18.27;51.17
57990;BME280;58373;51.824;5.564;2022-07-06T09:08:49;102516.16;;;18.23;50.27
57990;BME280;58373;51.824;5.564;2022-07-06T09:11:17;102520.72;;;18.21;49.09
57990;BME280;58373;51.824;5.564;2022-07-06T09:13:43;102511.31;;;18.28;50.11
57990;BME280;58373;51.824;5.564;2022-07-06T09:16:10;102509.41;;;18.30;53.30
57990;BME280;58373;51.824;5.564;2022-07-06T09:18:37;102514.16;;;18.65;53.79
57990;BME280;58373;51.824;5.564;2022-07-06T09:21:04;102511.09;;;18.50;50.67
57990;BME280;58373;51.824;5.564;2022-07-06T09:23:30;102512.47;;;18.35;48.88
57990;BME280;58373;51.824;5.564;2022-07-06T09:25:55;102505.53;;;18.34;50.55
57990;BME280;58373;51.824;5.564;2022-07-06T09:28:21;102518.72;;;18.53;51.92
57990;BME280;58373;51.824;5.564;2022-07-06T09:30:46;102508.88;;;18.55;50.60
57990;BME280;58373;51.824;5.564;2022-07-06T09:33:17;102516.38;;;18.60;50.77
57990;BME280;58373;51.824;5.564;2022-07-06T09:35:42;102516.41;;;18.89;53.55
57990;BME280;58373;51.824;5.564;2022-07-06T09:38:14;102513.91;;;18.97;50.68
57990;BME280;58373;51.824;5.564;2022-07-06T09:40:46;102520.84;;;19.18;50.98
57990;BME280;58373;51.824;5.564;2022-07-06T09:43:20;102509.75;;;19.33;51.81
57990;BME280;58373;51.824;5.564;2022-07-06T09:45:49;102516.41;;;19.18;49.89
57990;BME280;58373;51.824;5.564;2022-07-06T09:48:17;102522.50;;;19.19;49.09
57990;BME280;58373;51.824;5.564;2022-07-06T09:53:18;102521.13;;;18.95;49.45
57990;BME280;58373;51.824;5.564;2022-07-06T09:55:50;102521.00;;;18.87;49.82
57990;BME280;58373;51.824;5.564;2022-07-06T09:58:17;102516.66;;;19.25;50.40
57990;BME280;58373;51.824;5.564;2022-07-06T10:00:47;102526.34;;;19.34;48.42
57990;BME280;58373;51.824;5.564;2022-07-06T10:03:14;102516.66;;;19.44;48.96
57990;BME280;58373;51.824;5.564;2022-07-06T10:05:42;102524.66;;;19.52;47.19
57990;BME280;58373;51.824;5.564;2022-07-06T10:08:09;102521.88;;;19.73;50.00
57990;BME280;58373;51.824;5.564;2022-07-06T10:10:36;102512.06;;;19.46;47.38
57990;BME280;58373;51.824;5.564;2022-07-06T10:13:02;102530.50;;;19.46;47.48
57990;BME280;58373;51.824;5.564;2022-07-06T10:15:30;102516.97;;;19.22;47.91
57990;BME280;58373;51.824;5.564;2022-07-06T10:18:00;102537.44;;;19.28;47.54
57990;BME280;58373;51.824;5.564;2022-07-06T10:20:28;102528.56;;;19.29;48.96
57990;BME280;58373;51.824;5.564;2022-07-06T10:22:58;102535.84;;;19.54;49.47
57990;BME280;58373;51.824;5.564;2022-07-06T10:25:25;102540.44;;;19.52;49.39
57990;BME280;58373;51.824;5.564;2022-07-06T10:27:51;102540.16;;;19.55;48.73
57990;BME280;58373;51.824;5.564;2022-07-06T10:30:17;102528.84;;;19.45;47.82
57990;BME280;58373;51.824;5.564;2022-07-06T10:32:46;102531.31;;;19.56;47.51
57990;BME280;58373;51.824;5.564;2022-07-06T10:35:13;102534.38;;;19.61;48.13
57990;BME280;58373;51.824;5.564;2022-07-06T10:37:39;102522.84;;;19.43;48.96
57990;BME280;58373;51.824;5.564;2022-07-06T10:40:06;102526.31;;;19.53;50.55
57990;BME280;58373;51.824;5.564;2022-07-06T10:42:59;102527.97;;;19.54;48.73
57990;BME280;58373;51.824;5.564;2022-07-06T10:50:37;102515.00;;;19.90;47.68
57990;BME280;58373;51.824;5.564;2022-07-06T10:53:10;102517.88;;;19.97;47.63
57990;BME280;58373;51.824;5.564;2022-07-06T10:55:39;102517.38;;;19.83;46.75
57990;BME280;58373;51.824;5.564;2022-07-06T10:58:05;102517.38;;;19.83;45.72
57990;BME280;58373;51.824;5.564;2022-07-06T11:00:53;102512.91;;;19.94;48.06
57990;BME280;58373;51.824;5.564;2022-07-06T11:11:18;102515.38;;;19.95;47.14
57990;BME280;58373;51.824;5.564;2022-07-06T11:19:09;102514.13;;;20.27;45.80
57990;BME280;58373;51.824;5.564;2022-07-06T11:21:48;102517.16;;;20.32;47.71
57990;BME280;58373;51.824;5.564;2022-07-06T11:24:22;102514.13;;;20.27;44.93
57990;BME280;58373;51.824;5.564;2022-07-06T11:26:49;102503.97;;;20.04;43.70
57990;BME280;58373;51.824;5.564;2022-07-06T11:29:17;102510.97;;;20.41;44.79
57990;BME280;58373;51.824;5.564;2022-07-06T11:31:45;102503.34;;;20.65;44.98
57990;BME280;58373;51.824;5.564;2022-07-06T11:34:12;102493.91;;;20.81;48.71
57990;BME280;58373;51.824;5.564;2022-07-06T11:36:39;102496.94;;;20.50;44.21
57990;BME280;58373;51.824;5.564;2022-07-06T11:39:06;102491.88;;;20.75;47.86
57990;BME280;58373;51.824;5.564;2022-07-06T11:41:32;102477.63;;;20.32;44.09
57990;BME280;58373;51.824;5.564;2022-07-06T11:43:57;102479.31;;;20.51;45.33
57990;BME280;58373;51.824;5.564;2022-07-06T11:46:25;102480.84;;;20.71;45.16
57990;BME280;58373;51.824;5.564;2022-07-06T11:48:59;102469.59;;;20.69;46.97
57990;BME280;58373;51.824;5.564;2022-07-06T11:51:28;102489.47;;;20.63;44.00
57990;BME280;58373;51.824;5.564;2022-07-06T11:53:58;102481.66;;;20.72;46.46
57990;BME280;58373;51.824;5.564;2022-07-06T11:56:26;102482.19;;;20.30;46.70
57990;BME280;58373;51.824;5.564;2022-07-06T11:58:57;102477.59;;;20.59;47.09
57990;BME280;58373;51.824;5.564;2022-07-06T12:01:24;102465.16;;;20.87;49.28
57990;BME280;58373;51.824;5.564;2022-07-06T12:03:50;102472.16;;;20.79;45.91
57990;BME280;58373;51.824;5.564;2022-07-06T12:06:18;102462.97;;;20.83;44.16
57990;BME280;58373;51.824;5.564;2022-07-06T12:08:45;102459.44;;;21.18;46.18
57990;BME280;58373;51.824;5.564;2022-07-06T12:11:16;102450.50;;;21.37;44.33
57990;BME280;58373;51.824;5.564;2022-07-06T12:13:43;102458.13;;;20.96;42.24
57990;BME280;58373;51.824;5.564;2022-07-06T12:16:12;102465.31;;;21.30;44.21
57990;BME280;58373;51.824;5.564;2022-07-06T12:18:39;102458.78;;;21.42;42.66
57990;BME280;58373;51.824;5.564;2022-07-06T12:23:42;102461.59;;;21.48;44.96
57990;BME280;58373;51.824;5.564;2022-07-06T12:26:08;102456.66;;;21.80;43.11
57990;BME280;58373;51.824;5.564;2022-07-06T12:28:34;102450.31;;;21.72;42.95
57990;BME280;58373;51.824;5.564;2022-07-06T12:31:00;102449.09;;;22.01;43.61
57990;BME280;58373;51.824;5.564;2022-07-06T12:33:25;102450.09;;;21.92;42.64
57990;BME280;58373;51.824;5.564;2022-07-06T12:35:52;102448.44;;;22.07;43.66
57990;BME280;58373;51.824;5.564;2022-07-06T12:38:25;102450.19;;;22.24;43.19
57990;BME280;58373;51.824;5.564;2022-07-06T12:40:51;102436.66;;;22.19;41.83
57990;BME280;58373;51.824;5.564;2022-07-06T12:46:28;102436.84;;;22.50;44.36
57990;BME280;58373;51.824;5.564;2022-07-06T12:48:55;102445.44;;;22.61;43.75
57990;BME280;58373;51.824;5.564;2022-07-06T12:51:21;102437.34;;;22.62;41.90
57990;BME280;58373;51.824;5.564;2022-07-06T12:53:46;102446.25;;;22.53;40.74
57990;BME280;58373;51.824;5.564;2022-07-06T12:56:12;102430.03;;;22.48;40.90
57990;BME280;58373;51.824;5.564;2022-07-06T12:58:38;102415.53;;;22.60;40.70
57990;BME280;58373;51.824;5.564;2022-07-06T13:01:04;102437.34;;;22.62;42.72
57990;BME280;58373;51.824;5.564;2022-07-06T13:03:39;102439.97;;;22.62;41.11
57990;BME280;58373;51.824;5.564;2022-07-06T13:06:05;102438.63;;;22.34;40.76
57990;BME280;58373;51.824;5.564;2022-07-06T13:08:30;102440.31;;;22.51;39.88
57990;BME280;58373;51.824;5.564;2022-07-06T13:10:56;102439.25;;;22.11;39.20
57990;BME280;58373;51.824;5.564;2022-07-06T13:13:21;102426.59;;;22.39;41.49